sensor_id;sensor_type;location;lat;lon;timestamp;P1;durP1;ratioP1;P2;durP2;ratioP2
74614;SDS011;63121;51.458;-0.110;2023-11-21T00:01:03;7.57;;;2.10;;
74614;SDS011;63121;51.458;-0.110;2023-11-21T00:03:29;6.95;;;2.22;;
74614;SDS011;63121;51.458;-0.110;2023-11-21T00:05:55;5.82;;;2.10;;
74614;SDS011;63121;51.458;-0.110;2023-11-21T00:08:20;5.33;;;2.10;;
74614;SDS011;63121;51.458;-0.110;2023-11-21T00:10:45;6.47;;;2.03;;
74614;SDS011;63121;51.458;-0.110;2023-11-21T00:13:10;7.07;;;2.40;;
74614;SDS011;63121;51.458;-0.110;2023-11-21T00:15:37;7.07;;;2.05;;
74614;SDS011;63121;51.458;-0.110;2023-11-21T00:18:02;5.47;;;1.93;;
74614;SDS011;63121;51.458;-0.110;2023-11-21T00:20:28;6.93;;;2.47;;
74614;SDS011;63121;51.458;-0.110;2023-11-21T00:22:53;6.63;;;2.57;;
74614;SDS011;63121;51.458;-0.110;2023-11-21T00:25:18;6.63;;;2.50;;
74614;SDS011;63121;51.458;-0.110;2023-11-21T00:27:43;7.17;;;2.10;;
74614;SDS011;63121;51.458;-0.110;2023-11-21T00:30:09;6.85;;;2.15;;
74614;SDS011;63121;51.458;-0.110;2023-11-21T00:32:37;8.13;;;3.05;;
74614;SDS011;63121;51.458;-0.110;2023-11-21T00:35:03;6.53;;;2.47;;
74614;SDS011;63121;51.458;-0.110;2023-11-21T00:37:28;7.80;;;2.75;;
74614;SDS011;63121;51.458;-0.110;2023-11-21T00:39:53;8.57;;;2.90;;
74614;SDS011;63121;51.458;-0.110;2023-11-21T00:42:18;7.20;;;2.63;;
74614;SDS011;63121;51.458;-0.110;2023-11-21T00:44:44;7.60;;;2.90;;
74614;SDS011;63121;51.458;-0.110;2023-11-21T00:47:09;6.90;;;2.60;;
74614;SDS011;63121;51.458;-0.110;2023-11-21T00:49:34;6.87;;;2.70;;
74614;SDS011;63121;51.458;-0.110;2023-11-21T00:51:59;7.03;;;2.57;;
74614;SDS011;63121;51.458;-0.110;2023-11-21T00:54:25;5.53;;;1.85;;
74614;SDS011;63121;51.458;-0.110;2023-11-21T00:56:50;7.10;;;2.73;;
74614;SDS011;63121;51.458;-0.110;2023-11-21T00:59:15;7.10;;;2.47;;
74614;SDS011;63121;51.458;-0.110;2023-11-21T01:01:40;7.23;;;2.50;;
74614;SDS011;63121;51.458;-0.110;2023-11-21T01:04:06;6.93;;;2.57;;
74614;SDS011;63121;51.458;-0.110;2023-11-21T01:06:32;6.75;;;2.58;;
74614;SDS011;63121;51.458;-0.110;2023-11-21T01:08:57;8.20;;;2.38;;
74614;SDS011;63121;51.458;-0.110;2023-11-21T01:11:22;10.00;;;2.70;;
74614;SDS011;63121;51.458;-0.110;2023-11-21T01:13:47;6.80;;;2.53;;
74614;SDS011;63121;51.458;-0.110;2023-11-21T01:16:13;8.20;;;2.90;;
74614;SDS011;63121;51.458;-0.110;2023-11-21T01:18:38;6.90;;;2.40;;
74614;SDS011;63121;51.458;-0.110;2023-11-21T01:21:03;6.40;;;2.40;;
74614;SDS011;63121;51.458;-0.110;2023-11-21T01:23:28;8.40;;;2.90;;
74614;SDS011;63121;51.458;-0.110;2023-11-21T01:25:55;7.20;;;2.83;;
74614;SDS011;63121;51.458;-0.110;2023-11-21T01:28:21;6.75;;;2.63;;
74614;SDS011;63121;51.458;-0.110;2023-11-21T01:30:46;7.13;;;2.37;;
74614;SDS011;63121;51.458;-0.110;2023-11-21T01:33:11;7.37;;;2.40;;
74614;SDS011;63121;51.458;-0.110;2023-11-21T01:35:36;6.53;;;2.10;;
74614;SDS011;63121;51.458;-0.110;2023-11-21T01:38:02;7.00;;;2.50;;
74614;SDS011;63121;51.458;-0.110;2023-11-21T01:40:27;6.57;;;2.50;;
74614;SDS011;63121;51.458;-0.110;2023-11-21T01:42:53;6.32;;;2.40;;
74614;SDS011;63121;51.458;-0.110;2023-11-21T01:45:19;5.00;;;1.93;;
74614;SDS011;63121;51.458;-0.110;2023-11-21T01:47:45;5.18;;;1.83;;
74614;SDS011;63121;51.458;-0.110;2023-11-21T01:50:12;6.75;;;2.10;;
74614;SDS011;63121;51.458;-0.110;2023-11-21T01:52:38;5.18;;;1.90;;
74614;SDS011;63121;51.458;-0.110;2023-11-21T01:55:04;5.63;;;1.90;;
74614;SDS011;63121;51.458;-0.110;2023-11-21T01:57:30;5.03;;;1.73;;
74614;SDS011;63121;51.458;-0.110;2023-11-21T01:59:55;5.27;;;1.90;;
74614;SDS011;63121;51.458;-0.110;2023-11-21T02:02:21;6.55;;;2.30;;
74614;SDS011;63121;51.458;-0.110;2023-11-21T02:04:46;6.77;;;1.93;;
74614;SDS011;63121;51.458;-0.110;2023-11-21T02:07:12;5.77;;;1.97;;
74614;SDS011;63121;51.458;-0.110;2023-11-21T02:09:37;6.17;;;1.97;;
74614;SDS011;63121;51.458;-0.110;2023-11-21T02:12:07;6.63;;;2.55;;
74614;SDS011;63121;51.458;-0.110;2023-11-21T02:14:33;6.40;;;2.15;;
74614;SDS011;63121;51.458;-0.110;2023-11-21T02:16:59;7.43;;;2.80;;
74614;SDS011;63121;51.458;-0.110;2023-11-21T02:19:25;7.25;;;2.80;;
74614;SDS011;63121;51.458;-0.110;2023-11-21T02:21:51;6.80;;;2.70;;
74614;SDS011;63121;51.458;-0.110;2023-11-21T02:24:18;5.35;;;2.05;;
74614;SDS011;63121;51.458;-0.110;2023-11-21T02:29:08;5.72;;;2.20;;
74614;SDS011;63121;51.458;-0.110;2023-11-21T02:31:37;7.18;;;2.35;;
74614;SDS011;63121;51.458;-0.110;2023-11-21T02:34:10;6.25;;;2.33;;
74614;SDS011;63121;51.458;-0.110;2023-11-21T02:36:38;6.75;;;2.42;;
74614;SDS011;63121;51.458;-0.110;2023-11-21T02:39:03;7.83;;;2.93;;
74614;SDS011;63121;51.458;-0.110;2023-11-21T02:41:28;8.07;;;2.70;;
74614;SDS011;63121;51.458;-0.110;2023-11-21T02:43:54;5.85;;;2.20;;
74614;SDS011;63121;51.458;-0.110;2023-11-21T02:46:19;6.60;;;2.13;;
74614;SDS011;63121;51.458;-0.110;2023-11-21T02:48:44;7.20;;;2.50;;
74614;SDS011;63121;51.458;-0.110;2023-11-21T02:51:09;7.67;;;2.57;;
74614;SDS011;63121;51.458;-0.110;2023-11-21T02:53:35;6.60;;;2.33;;
74614;SDS011;63121;51.458;-0.110;2023-11-21T02:56:00;7.37;;;2.80;;
74614;SDS011;63121;51.458;-0.110;2023-11-21T02:58:25;6.50;;;2.23;;
74614;SDS011;63121;51.458;-0.110;2023-11-21T03:00:50;8.13;;;2.13;;
74614;SDS011;63121;51.458;-0.110;2023-11-21T03:03:16;7.80;;;2.80;;
74614;SDS011;63121;51.458;-0.110;2023-11-21T03:05:42;5.80;;;2.00;;
74614;SDS011;63121;51.458;-0.110;2023-11-21T03:08:07;5.10;;;1.92;;
74614;SDS011;63121;51.458;-0.110;2023-11-21T03:10:33;5.73;;;1.73;;
74614;SDS011;63121;51.458;-0.110;2023-11-21T03:12:58;6.03;;;2.03;;
74614;SDS011;63121;51.458;-0.110;2023-11-21T03:15:23;5.83;;;2.00;;
74614;SDS011;63121;51.458;-0.110;2023-11-21T03:17:48;4.70;;;1.57;;
74614;SDS011;63121;51.458;-0.110;2023-11-21T03:20:14;4.53;;;1.75;;
74614;SDS011;63121;51.458;-0.110;2023-11-21T03:22:41;6.40;;;2.05;;
74614;SDS011;63121;51.458;-0.110;2023-11-21T03:25:07;5.17;;;1.63;;
74614;SDS011;63121;51.458;-0.110;2023-11-21T03:27:35;5.13;;;1.55;;
74614;SDS011;63121;51.458;-0.110;2023-11-21T03:30:00;4.83;;;1.60;;
74614;SDS011;63121;51.458;-0.110;2023-11-21T03:32:26;4.90;;;1.37;;
74614;SDS011;63121;51.458;-0.110;2023-11-21T03:34:55;4.47;;;1.57;;
74614;SDS011;63121;51.458;-0.110;2023-11-21T03:37:21;3.30;;;1.30;;
74614;SDS011;63121;51.458;-0.110;2023-11-21T03:39:46;3.00;;;1.33;;
74614;SDS011;63121;51.458;-0.110;2023-11-21T03:42:12;3.78;;;1.25;;
74614;SDS011;63121;51.458;-0.110;2023-11-21T03:44:37;4.70;;;1.47;;
74614;SDS011;63121;51.458;-0.110;2023-11-21T03:47:02;3.33;;;1.10;;
74614;SDS011;63121;51.458;-0.110;2023-11-21T03:49:28;3.13;;;1.27;;
74614;SDS011;63121;51.458;-0.110;2023-11-21T03:51:54;4.00;;;1.25;;
74614;SDS011;63121;51.458;-0.110;2023-11-21T03:54:19;2.93;;;1.00;;
74614;SDS011;63121;51.458;-0.110;2023-11-21T03:56:44;4.73;;;1.20;;
74614;SDS011;63121;51.458;-0.110;2023-11-21T03:59:10;2.50;;;0.90;;
74614;SDS011;63121;51.458;-0.110;2023-11-21T04:01:35;1.60;;;0.77;;
74614;SDS011;63121;51.458;-0.110;2023-11-21T04:04:00;4.97;;;1.50;;
74614;SDS011;63121;51.458;-0.110;2023-11-21T04:06:25;2.63;;;1.00;;
74614;SDS011;63121;51.458;-0.110;2023-11-21T04:08:50;2.13;;;0.80;;
74614;SDS011;63121;51.458;-0.110;2023-11-21T04:11:16;3.47;;;1.10;;
74614;SDS011;63121;51.458;-0.110;2023-11-21T04:13:41;3.77;;;1.10;;
74614;SDS011;63121;51.458;-0.110;2023-11-21T04:16:07;2.53;;;1.10;;
74614;SDS011;63121;51.458;-0.110;2023-11-21T04:18:33;4.00;;;1.10;;
74614;SDS011;63121;51.458;-0.110;2023-11-21T04:20:58;3.67;;;1.10;;
74614;SDS011;63121;51.458;-0.110;2023-11-21T04:23:23;2.57;;;0.90;;
74614;SDS011;63121;51.458;-0.110;2023-11-21T04:25:49;5.07;;;1.20;;
74614;SDS011;63121;51.458;-0.110;2023-11-21T04:28:14;3.77;;;1.17;;
74614;SDS011;63121;51.458;-0.110;2023-11-21T04:30:39;2.50;;;1.03;;
74614;SDS011;63121;51.458;-0.110;2023-11-21T04:33:05;2.80;;;1.20;;
74614;SDS011;63121;51.458;-0.110;2023-11-21T04:35:31;3.28;;;1.20;;
74614;SDS011;63121;51.458;-0.110;2023-11-21T04:37:56;2.43;;;0.90;;
74614;SDS011;63121;51.458;-0.110;2023-11-21T04:40:22;2.13;;;0.93;;
74614;SDS011;63121;51.458;-0.110;2023-11-21T04:42:47;1.73;;;0.90;;
74614;SDS011;63121;51.458;-0.110;2023-11-21T04:45:13;1.80;;;0.80;;
74614;SDS011;63121;51.458;-0.110;2023-11-21T04:47:38;4.47;;;1.00;;
74614;SDS011;63121;51.458;-0.110;2023-11-21T04:50:12;1.73;;;0.90;;
74614;SDS011;63121;51.458;-0.110;2023-11-21T04:52:38;2.92;;;1.10;;
74614;SDS011;63121;51.458;-0.110;2023-11-21T04:55:04;1.80;;;0.80;;
74614;SDS011;63121;51.458;-0.110;2023-11-21T04:57:31;3.22;;;1.20;;
74614;SDS011;63121;51.458;-0.110;2023-11-21T04:59:57;4.30;;;1.00;;
74614;SDS011;63121;51.458;-0.110;2023-11-21T05:02:22;1.87;;;0.80;;
74614;SDS011;63121;51.458;-0.110;2023-11-21T05:04:47;4.83;;;1.03;;
74614;SDS011;63121;51.458;-0.110;2023-11-21T05:07:12;3.67;;;0.90;;
74614;SDS011;63121;51.458;-0.110;2023-11-21T05:09:41;3.43;;;1.30;;
74614;SDS011;63121;51.458;-0.110;2023-11-21T05:12:06;2.67;;;0.90;;
74614;SDS011;63121;51.458;-0.110;2023-11-21T05:14:32;3.35;;;1.20;;
74614;SDS011;63121;51.458;-0.110;2023-11-21T05:16:57;2.80;;;1.00;;
74614;SDS011;63121;51.458;-0.110;2023-11-21T05:19:24;3.03;;;1.15;;
74614;SDS011;63121;51.458;-0.110;2023-11-21T05:21:49;5.87;;;1.20;;
74614;SDS011;63121;51.458;-0.110;2023-11-21T05:24:14;3.90;;;1.30;;
74614;SDS011;63121;51.458;-0.110;2023-11-21T05:26:40;2.97;;;0.98;;
74614;SDS011;63121;51.458;-0.110;2023-11-21T05:29:05;2.30;;;1.07;;
74614;SDS011;63121;51.458;-0.110;2023-11-21T05:31:31;2.00;;;0.80;;
74614;SDS011;63121;51.458;-0.110;2023-11-21T05:33:56;2.97;;;1.10;;
74614;SDS011;63121;51.458;-0.110;2023-11-21T05:36:21;3.77;;;1.30;;
74614;SDS011;63121;51.458;-0.110;2023-11-21T05:38:46;3.97;;;1.27;;
74614;SDS011;63121;51.458;-0.110;2023-11-21T05:41:11;2.30;;;1.20;;
74614;SDS011;63121;51.458;-0.110;2023-11-21T05:43:38;4.50;;;1.50;;
74614;SDS011;63121;51.458;-0.110;2023-11-21T05:46:03;4.28;;;1.20;;
74614;SDS011;63121;51.458;-0.110;2023-11-21T05:48:29;1.85;;;0.93;;
74614;SDS011;63121;51.458;-0.110;2023-11-21T05:50:54;4.10;;;1.20;;
74614;SDS011;63121;51.458;-0.110;2023-11-21T05:53:20;2.35;;;0.98;;
74614;SDS011;63121;51.458;-0.110;2023-11-21T05:55:46;3.92;;;1.13;;
74614;SDS011;63121;51.458;-0.110;2023-11-21T05:58:13;6.10;;;1.10;;
74614;SDS011;63121;51.458;-0.110;2023-11-21T06:00:38;2.13;;;1.25;;
74614;SDS011;63121;51.458;-0.110;2023-11-21T06:03:03;4.00;;;1.20;;
74614;SDS011;63121;51.458;-0.110;2023-11-21T06:05:31;3.22;;;1.15;;
74614;SDS011;63121;51.458;-0.110;2023-11-21T06:07:58;3.13;;;0.90;;
74614;SDS011;63121;51.458;-0.110;2023-11-21T06:10:24;2.93;;;1.10;;
74614;SDS011;63121;51.458;-0.110;2023-11-21T06:12:49;3.85;;;1.20;;
74614;SDS011;63121;51.458;-0.110;2023-11-21T06:15:14;3.00;;;1.03;;
74614;SDS011;63121;51.458;-0.110;2023-11-21T06:17:40;2.63;;;1.10;;
74614;SDS011;63121;51.458;-0.110;2023-11-21T06:20:06;3.53;;;1.20;;
74614;SDS011;63121;51.458;-0.110;2023-11-21T06:22:38;3.70;;;1.10;;
74614;SDS011;63121;51.458;-0.110;2023-11-21T06:25:03;4.65;;;1.20;;
74614;SDS011;63121;51.458;-0.110;2023-11-21T06:27:31;2.15;;;0.95;;
74614;SDS011;63121;51.458;-0.110;2023-11-21T06:29:57;3.17;;;0.70;;
74614;SDS011;63121;51.458;-0.110;2023-11-21T06:32:22;3.30;;;1.03;;
74614;SDS011;63121;51.458;-0.110;2023-11-21T06:34:47;2.63;;;1.10;;
74614;SDS011;63121;51.458;-0.110;2023-11-21T06:37:13;2.17;;;0.80;;
74614;SDS011;63121;51.458;-0.110;2023-11-21T06:39:38;3.03;;;1.20;;
74614;SDS011;63121;51.458;-0.110;2023-11-21T06:42:03;3.63;;;1.00;;
74614;SDS011;63121;51.458;-0.110;2023-11-21T06:44:29;4.00;;;1.05;;
74614;SDS011;63121;51.458;-0.110;2023-11-21T06:46:54;3.10;;;1.10;;
74614;SDS011;63121;51.458;-0.110;2023-11-21T06:49:19;3.83;;;0.90;;
74614;SDS011;63121;51.458;-0.110;2023-11-21T06:51:45;4.55;;;1.10;;
74614;SDS011;63121;51.458;-0.110;2023-11-21T06:54:10;3.27;;;0.93;;
74614;SDS011;63121;51.458;-0.110;2023-11-21T06:56:35;2.03;;;1.00;;
74614;SDS011;63121;51.458;-0.110;2023-11-21T06:59:01;2.57;;;0.93;;
74614;SDS011;63121;51.458;-0.110;2023-11-21T07:01:26;5.23;;;0.90;;
74614;SDS011;63121;51.458;-0.110;2023-11-21T07:03:51;3.23;;;1.00;;
74614;SDS011;63121;51.458;-0.110;2023-11-21T07:06:16;8.43;;;1.13;;
74614;SDS011;63121;51.458;-0.110;2023-11-21T07:08:42;4.40;;;0.90;;
74614;SDS011;63121;51.458;-0.110;2023-11-21T07:11:07;4.30;;;0.98;;
74614;SDS011;63121;51.458;-0.110;2023-11-21T07:13:32;2.63;;;0.90;;
74614;SDS011;63121;51.458;-0.110;2023-11-21T07:15:58;3.00;;;0.97;;
74614;SDS011;63121;51.458;-0.110;2023-11-21T07:18:24;3.75;;;1.10;;
74614;SDS011;63121;51.458;-0.110;2023-11-21T07:20:49;6.37;;;1.33;;
74614;SDS011;63121;51.458;-0.110;2023-11-21T07:23:14;3.93;;;1.13;;
74614;SDS011;63121;51.458;-0.110;2023-11-21T07:25:40;4.22;;;1.30;;
74614;SDS011;63121;51.458;-0.110;2023-11-21T07:28:06;4.15;;;1.25;;
74614;SDS011;63121;51.458;-0.110;2023-11-21T07:30:32;4.03;;;1.60;;
74614;SDS011;63121;51.458;-0.110;2023-11-21T07:32:57;4.82;;;1.25;;
74614;SDS011;63121;51.458;-0.110;2023-11-21T07:35:22;2.90;;;0.97;;
74614;SDS011;63121;51.458;-0.110;2023-11-21T07:37:48;5.73;;;1.80;;
74614;SDS011;63121;51.458;-0.110;2023-11-21T07:40:13;3.95;;;0.93;;
74614;SDS011;63121;51.458;-0.110;2023-11-21T07:42:39;8.80;;;1.60;;
74614;SDS011;63121;51.458;-0.110;2023-11-21T07:45:05;5.00;;;1.60;;
74614;SDS011;63121;51.458;-0.110;2023-11-21T07:47:30;5.18;;;1.30;;
74614;SDS011;63121;51.458;-0.110;2023-11-21T07:49:55;5.07;;;1.43;;
74614;SDS011;63121;51.458;-0.110;2023-11-21T07:52:23;4.40;;;1.42;;
74614;SDS011;63121;51.458;-0.110;2023-11-21T07:54:49;5.28;;;1.60;;
74614;SDS011;63121;51.458;-0.110;2023-11-21T07:57:14;5.00;;;1.30;;
74614;SDS011;63121;51.458;-0.110;2023-11-21T07:59:40;4.57;;;1.50;;
74614;SDS011;63121;51.458;-0.110;2023-11-21T08:02:06;3.95;;;1.40;;
74614;SDS011;63121;51.458;-0.110;2023-11-21T08:04:31;4.47;;;1.40;;
74614;SDS011;63121;51.458;-0.110;2023-11-21T08:06:57;5.95;;;1.60;;
74614;SDS011;63121;51.458;-0.110;2023-11-21T08:09:22;4.40;;;1.17;;
74614;SDS011;63121;51.458;-0.110;2023-11-21T08:11:48;6.13;;;1.25;;
74614;SDS011;63121;51.458;-0.110;2023-11-21T08:14:14;4.20;;;1.35;;
74614;SDS011;63121;51.458;-0.110;2023-11-21T08:16:40;7.35;;;1.40;;
74614;SDS011;63121;51.458;-0.110;2023-11-21T08:19:05;8.37;;;1.40;;
74614;SDS011;63121;51.458;-0.110;2023-11-21T08:21:31;4.45;;;1.27;;
74614;SDS011;63121;51.458;-0.110;2023-11-21T08:23:56;4.40;;;1.10;;
74614;SDS011;63121;51.458;-0.110;2023-11-21T08:26:21;3.83;;;1.20;;
74614;SDS011;63121;51.458;-0.110;2023-11-21T08:28:47;3.60;;;1.20;;
74614;SDS011;63121;51.458;-0.110;2023-11-21T08:31:13;3.95;;;0.98;;
74614;SDS011;63121;51.458;-0.110;2023-11-21T08:33:38;4.67;;;1.00;;
74614;SDS011;63121;51.458;-0.110;2023-11-21T08:36:06;2.87;;;1.10;;
74614;SDS011;63121;51.458;-0.110;2023-11-21T08:38:32;4.40;;;1.23;;
74614;SDS011;63121;51.458;-0.110;2023-11-21T08:40:57;3.93;;;1.30;;
74614;SDS011;63121;51.458;-0.110;2023-11-21T08:43:22;3.63;;;0.97;;
74614;SDS011;63121;51.458;-0.110;2023-11-21T08:45:49;3.55;;;1.02;;
74614;SDS011;63121;51.458;-0.110;2023-11-21T08:48:14;2.67;;;1.20;;
74614;SDS011;63121;51.458;-0.110;2023-11-21T08:50:39;3.73;;;1.00;;
74614;SDS011;63121;51.458;-0.110;2023-11-21T08:53:05;3.87;;;1.00;;
74614;SDS011;63121;51.458;-0.110;2023-11-21T08:55:30;2.47;;;1.05;;
74614;SDS011;63121;51.458;-0.110;2023-11-21T08:57:56;5.17;;;1.30;;
74614;SDS011;63121;51.458;-0.110;2023-11-21T09:00:21;4.78;;;1.30;;
74614;SDS011;63121;51.458;-0.110;2023-11-21T09:02:47;1.45;;;0.65;;
74614;SDS011;63121;51.458;-0.110;2023-11-21T09:05:12;4.57;;;1.23;;
74614;SDS011;63121;51.458;-0.110;2023-11-21T09:07:39;4.53;;;1.33;;
74614;SDS011;63121;51.458;-0.110;2023-11-21T09:10:04;5.65;;;1.40;;
74614;SDS011;63121;51.458;-0.110;2023-11-21T09:12:32;3.95;;;1.20;;
74614;SDS011;63121;51.458;-0.110;2023-11-21T09:14:58;2.15;;;0.90;;
74614;SDS011;63121;51.458;-0.110;2023-11-21T09:17:23;3.70;;;1.20;;
74614;SDS011;63121;51.458;-0.110;2023-11-21T09:19:49;2.28;;;1.00;;
74614;SDS011;63121;51.458;-0.110;2023-11-21T09:22:17;4.78;;;1.40;;
74614;SDS011;63121;51.458;-0.110;2023-11-21T09:24:42;4.05;;;1.10;;
74614;SDS011;63121;51.458;-0.110;2023-11-21T09:27:08;2.63;;;1.10;;
74614;SDS011;63121;51.458;-0.110;2023-11-21T09:29:34;4.03;;;1.38;;
74614;SDS011;63121;51.458;-0.110;2023-11-21T09:31:59;5.57;;;1.30;;
74614;SDS011;63121;51.458;-0.110;2023-11-21T09:34:26;3.22;;;1.08;;
74614;SDS011;63121;51.458;-0.110;2023-11-21T09:36:51;4.90;;;1.30;;
74614;SDS011;63121;51.458;-0.110;2023-11-21T09:39:16;4.93;;;1.13;;
74614;SDS011;63121;51.458;-0.110;2023-11-21T09:41:48;3.65;;;1.23;;
74614;SDS011;63121;51.458;-0.110;2023-11-21T09:44:15;4.95;;;1.42;;
74614;SDS011;63121;51.458;-0.110;2023-11-21T09:46:42;3.50;;;1.30;;
74614;SDS011;63121;51.458;-0.110;2023-11-21T09:49:08;4.38;;;1.33;;
74614;SDS011;63121;51.458;-0.110;2023-11-21T09:51:37;4.10;;;1.10;;
74614;SDS011;63121;51.458;-0.110;2023-11-21T09:54:05;3.65;;;1.08;;
74614;SDS011;63121;51.458;-0.110;2023-11-21T09:56:32;3.78;;;1.50;;
74614;SDS011;63121;51.458;-0.110;2023-11-21T09:58:57;3.70;;;1.23;;
74614;SDS011;63121;51.458;-0.110;2023-11-21T10:01:23;5.70;;;1.90;;
74614;SDS011;63121;51.458;-0.110;2023-11-21T10:03:50;7.10;;;1.58;;
74614;SDS011;63121;51.458;-0.110;2023-11-21T10:06:15;4.03;;;1.30;;
74614;SDS011;63121;51.458;-0.110;2023-11-21T10:11:08;7.15;;;1.88;;
74614;SDS011;63121;51.458;-0.110;2023-11-21T10:13:36;5.55;;;1.73;;
74614;SDS011;63121;51.458;-0.110;2023-11-21T10:16:02;3.50;;;1.30;;
74614;SDS011;63121;51.458;-0.110;2023-11-21T10:18:30;2.65;;;1.05;;
74614;SDS011;63121;51.458;-0.110;2023-11-21T10:20:59;3.50;;;1.20;;
74614;SDS011;63121;51.458;-0.110;2023-11-21T10:23:24;14.68;;;3.17;;
74614;SDS011;63121;51.458;-0.110;2023-11-21T10:25:53;6.97;;;1.80;;
74614;SDS011;63121;51.458;-0.110;2023-11-21T10:28:19;5.70;;;1.80;;
74614;SDS011;63121;51.458;-0.110;2023-11-21T10:30:45;4.35;;;1.30;;
74614;SDS011;63121;51.458;-0.110;2023-11-21T10:33:11;6.18;;;1.88;;
74614;SDS011;63121;51.458;-0.110;2023-11-21T10:35:46;5.47;;;1.97;;
74614;SDS011;63121;51.458;-0.110;2023-11-21T10:38:13;4.70;;;1.17;;
74614;SDS011;63121;51.458;-0.110;2023-11-21T10:40:39;1.27;;;0.80;;
74614;SDS011;63121;51.458;-0.110;2023-11-21T10:43:08;3.83;;;1.00;;
74614;SDS011;63121;51.458;-0.110;2023-11-21T10:45:34;3.25;;;1.05;;
74614;SDS011;63121;51.458;-0.110;2023-11-21T10:47:59;3.53;;;1.17;;
74614;SDS011;63121;51.458;-0.110;2023-11-21T10:50:25;4.83;;;1.43;;
74614;SDS011;63121;51.458;-0.110;2023-11-21T10:52:51;5.00;;;0.85;;
74614;SDS011;63121;51.458;-0.110;2023-11-21T10:55:16;5.22;;;1.30;;
74614;SDS011;63121;51.458;-0.110;2023-11-21T11:00:08;3.92;;;1.20;;
74614;SDS011;63121;51.458;-0.110;2023-11-21T11:02:37;2.67;;;1.00;;
74614;SDS011;63121;51.458;-0.110;2023-11-21T11:05:03;3.90;;;1.30;;
74614;SDS011;63121;51.458;-0.110;2023-11-21T11:07:31;3.17;;;1.13;;
74614;SDS011;63121;51.458;-0.110;2023-11-21T11:09:59;3.80;;;1.27;;
74614;SDS011;63121;51.458;-0.110;2023-11-21T11:12:25;3.30;;;1.15;;
74614;SDS011;63121;51.458;-0.110;2023-11-21T11:14:50;2.03;;;0.80;;
74614;SDS011;63121;51.458;-0.110;2023-11-21T11:17:16;1.50;;;0.80;;
74614;SDS011;63121;51.458;-0.110;2023-11-21T11:19:41;2.83;;;1.08;;
74614;SDS011;63121;51.458;-0.110;2023-11-21T11:35:43;2.55;;;1.10;;
74614;SDS011;63121;51.458;-0.110;2023-11-21T11:38:12;1.63;;;0.80;;
74614;SDS011;63121;51.458;-0.110;2023-11-21T11:40:39;0.60;;;0.60;;
74614;SDS011;63121;51.458;-0.110;2023-11-21T11:43:05;2.72;;;0.90;;
74614;SDS011;63121;51.458;-0.110;2023-11-21T11:45:32;2.72;;;0.93;;
74614;SDS011;63121;51.458;-0.110;2023-11-21T11:47:59;1.83;;;0.85;;
74614;SDS011;63121;51.458;-0.110;2023-11-21T11:50:24;2.97;;;0.82;;
74614;SDS011;63121;51.458;-0.110;2023-11-21T11:52:52;2.67;;;1.00;;
74614;SDS011;63121;51.458;-0.110;2023-11-21T11:55:20;2.10;;;0.80;;
74614;SDS011;63121;51.458;-0.110;2023-11-21T11:57:47;3.75;;;1.00;;
74614;SDS011;63121;51.458;-0.110;2023-11-21T12:02:41;4.30;;;1.10;;
74614;SDS011;63121;51.458;-0.110;2023-11-21T12:05:10;3.70;;;1.00;;
74614;SDS011;63121;51.458;-0.110;2023-11-21T12:07:42;2.95;;;1.02;;
74614;SDS011;63121;51.458;-0.110;2023-11-21T12:10:08;1.85;;;1.00;;
74614;SDS011;63121;51.458;-0.110;2023-11-21T12:12:36;2.20;;;0.95;;
74614;SDS011;63121;51.458;-0.110;2023-11-21T12:15:03;3.17;;;1.20;;
74614;SDS011;63121;51.458;-0.110;2023-11-21T12:17:30;3.88;;;1.40;;
74614;SDS011;63121;51.458;-0.110;2023-11-21T12:20:01;4.37;;;1.30;;
74614;SDS011;63121;51.458;-0.110;2023-11-21T12:22:27;4.53;;;1.40;;
74614;SDS011;63121;51.458;-0.110;2023-11-21T12:24:53;5.65;;;1.70;;
74614;SDS011;63121;51.458;-0.110;2023-11-21T12:27:20;4.90;;;1.60;;
74614;SDS011;63121;51.458;-0.110;2023-11-21T12:29:45;4.72;;;1.55;;
74614;SDS011;63121;51.458;-0.110;2023-11-21T12:32:11;3.80;;;1.30;;
74614;SDS011;63121;51.458;-0.110;2023-11-21T12:34:36;5.07;;;1.70;;
74614;SDS011;63121;51.458;-0.110;2023-11-21T12:37:03;4.97;;;1.67;;
74614;SDS011;63121;51.458;-0.110;2023-11-21T12:39:28;4.73;;;1.60;;
74614;SDS011;63121;51.458;-0.110;2023-11-21T12:41:54;6.03;;;2.10;;
74614;SDS011;63121;51.458;-0.110;2023-11-21T12:44:19;6.47;;;1.75;;
74614;SDS011;63121;51.458;-0.110;2023-11-21T12:46:44;4.60;;;1.60;;
74614;SDS011;63121;51.458;-0.110;2023-11-21T12:49:11;5.18;;;1.63;;
74614;SDS011;63121;51.458;-0.110;2023-11-21T12:51:42;5.57;;;1.80;;
74614;SDS011;63121;51.458;-0.110;2023-11-21T12:54:07;6.75;;;1.70;;
74614;SDS011;63121;51.458;-0.110;2023-11-21T12:56:38;5.97;;;1.55;;
74614;SDS011;63121;51.458;-0.110;2023-11-21T12:59:03;4.65;;;1.65;;
74614;SDS011;63121;51.458;-0.110;2023-11-21T13:01:29;5.40;;;1.63;;
74614;SDS011;63121;51.458;-0.110;2023-11-21T13:03:59;4.53;;;1.55;;
74614;SDS011;63121;51.458;-0.110;2023-11-21T13:06:24;4.13;;;1.42;;
74614;SDS011;63121;51.458;-0.110;2023-11-21T13:08:51;4.45;;;1.45;;
74614;SDS011;63121;51.458;-0.110;2023-11-21T13:11:16;4.67;;;1.40;;
74614;SDS011;63121;51.458;-0.110;2023-11-21T13:13:43;3.20;;;1.20;;
74614;SDS011;63121;51.458;-0.110;2023-11-21T13:16:11;4.68;;;1.70;;
74614;SDS011;63121;51.458;-0.110;2023-11-21T13:18:36;5.43;;;1.43;;
74614;SDS011;63121;51.458;-0.110;2023-11-21T13:21:03;4.00;;;1.50;;
74614;SDS011;63121;51.458;-0.110;2023-11-21T13:23:38;3.10;;;1.20;;
74614;SDS011;63121;51.458;-0.110;2023-11-21T13:26:03;3.10;;;1.20;;
74614;SDS011;63121;51.458;-0.110;2023-11-21T13:28:29;4.35;;;1.20;;
74614;SDS011;63121;51.458;-0.110;2023-11-21T13:30:58;4.00;;;1.50;;
74614;SDS011;63121;51.458;-0.110;2023-11-21T13:33:28;4.47;;;1.20;;
74614;SDS011;63121;51.458;-0.110;2023-11-21T13:35:53;2.65;;;1.10;;
74614;SDS011;63121;51.458;-0.110;2023-11-21T13:38:21;0.65;;;0.63;;
74614;SDS011;63121;51.458;-0.110;2023-11-21T13:43:14;3.42;;;0.40;;
74614;SDS011;63121;51.458;-0.110;2023-11-21T13:45:40;0.52;;;0.40;;
74614;SDS011;63121;51.458;-0.110;2023-11-21T13:48:06;1.52;;;0.50;;
74614;SDS011;63121;51.458;-0.110;2023-11-21T13:50:44;1.35;;;0.50;;
74614;SDS011;63121;51.458;-0.110;2023-11-21T13:53:20;1.38;;;0.47;;
74614;SDS011;63121;51.458;-0.110;2023-11-21T13:55:48;1.40;;;0.43;;
74614;SDS011;63121;51.458;-0.110;2023-11-21T13:58:14;1.10;;;0.40;;
74614;SDS011;63121;51.458;-0.110;2023-11-21T14:00:44;3.25;;;0.80;;
74614;SDS011;63121;51.458;-0.110;2023-11-21T14:03:14;0.70;;;0.40;;
74614;SDS011;63121;51.458;-0.110;2023-11-21T14:06:03;7.05;;;1.30;;
74614;SDS011;63121;51.458;-0.110;2023-11-21T14:08:33;1.65;;;0.70;;
74614;SDS011;63121;51.458;-0.110;2023-11-21T14:10:59;3.28;;;0.70;;
74614;SDS011;63121;51.458;-0.110;2023-11-21T14:13:27;5.82;;;1.27;;
74614;SDS011;63121;51.458;-0.110;2023-11-21T14:15:53;6.20;;;1.13;;
74614;SDS011;63121;51.458;-0.110;2023-11-21T14:18:26;3.65;;;0.90;;
74614;SDS011;63121;51.458;-0.110;2023-11-21T14:20:55;3.05;;;0.90;;
74614;SDS011;63121;51.458;-0.110;2023-11-21T14:23:20;5.20;;;1.00;;
74614;SDS011;63121;51.458;-0.110;2023-11-21T14:25:48;2.97;;;0.85;;
74614;SDS011;63121;51.458;-0.110;2023-11-21T14:28:13;2.97;;;0.83;;
74614;SDS011;63121;51.458;-0.110;2023-11-21T14:30:39;4.00;;;0.98;;
74614;SDS011;63121;51.458;-0.110;2023-11-21T14:33:06;1.83;;;0.55;;
74614;SDS011;63121;51.458;-0.110;2023-11-21T14:35:33;4.53;;;0.90;;
74614;SDS011;63121;51.458;-0.110;2023-11-21T14:37:59;1.25;;;0.60;;
74614;SDS011;63121;51.458;-0.110;2023-11-21T14:40:25;8.15;;;1.08;;
74614;SDS011;63121;51.458;-0.110;2023-11-21T14:42:52;3.90;;;0.80;;
74614;SDS011;63121;51.458;-0.110;2023-11-21T14:45:19;2.63;;;0.80;;
74614;SDS011;63121;51.458;-0.110;2023-11-21T14:47:48;5.55;;;1.10;;
74614;SDS011;63121;51.458;-0.110;2023-11-21T14:50:23;5.82;;;1.02;;
74614;SDS011;63121;51.458;-0.110;2023-11-21T14:53:08;5.68;;;1.00;;